Airfield :
LOGIN :

Register | Disclaimer

   EN    FR    IT 

 










Legend :    VFR   Marginal VFR   IFR   Intensive IFR   Very Intensive IFR
Visi :
Ceiling :
>= 8 km
>= 3000ft
5 to 8 km
1000 to 3000 ft
1500m to 5 km
500 to 1000 ft
800 to 1500m
200 to 500 ft
< 800m
< 200 ft
Symbols :   Thunderstorms  Fog  Heavy snow  Heavy precipitations  Wind > 20 kt
SIGMETs :     Misc.  Thunderstorms  Icing  Turbulence  Mountain Waves  Volcanic Ashes






- Airport Elevation : 15 ft
- IATA code : FCO


LIRF - Roma Leonardo da Vinci Fiumicino

CURRENT METAR :
  • 010120Z 08004KT CAVOK 06/05 Q1019 NOSIG

EXPIRED METARs :
  • 010050Z 09002KT CAVOK 06/04 Q1019 NOSIG
  • 010020Z 05003KT CAVOK 06/04 Q1019 NOSIG
  • 302350Z 04003KT CAVOK 07/05 Q1019 NOSIG
  • 302320Z 01003KT 9999 FEW038 06/05 Q1019 NOSIG
  • 302250Z 04003KT 9999 FEW036 08/06 Q1019 NOSIG

TAF TAF LIRF
Valid from the 01 at 00:00 until the 02 at 06:00 UTC


302300Z 0100/0206 VRB04KT 9999 SCT030
TEMPO 0100/0106 2000 BCFG BKN002
BECMG 0107/0109 11010KT
BECMG 0112/0114 17010KT
TEMPO 0115/0124 4000 RA
BECMG 0120/0122 24015KT



MET'MAP, your aeronautical weather chart ! - Copyright ORBIFLY December 2007 - Disclaimer

ORBIFLY MET'MAP TEAM :

Programming & Development : Alexandra Zaïnal
Concept & original design : Baudouin d'Aumeries
Assistance for programming : Marc-Olivier Méhu
Technical & hardware support : Manuel Goepfert

Contact : metmap@orbifly.com




SOURCES & CREDITS :

   NOAA